Santa Rosa Valley, California
Current Conditions -  °F | °C
As of 8:55 AM on Sunday 23 Nov 2014 (Local Time) from KCMA Reporting Station
Clear Clear  
Wind Chill: 63°   Ceiling: Unl
Heat Index: 63°   Visibility: 10mi
Dew Point: 48°   Wind: 7mph
Humidity: 58%   Direction: 200°SSW
Pressure: 30.16"   Gusts: NA
Location:  34.1954°N, 119.003°W
Report Text: KCMA 231655Z 20006KT 10SM CLR 17/09 A3016 RMK AO2 SLP221 T01720089
Loading
Personal Weather Stations






























Interactive Weather Map New forecast layout! Learn more

10-Day Weather Forecast

Advertisements
Track Severe Weather on mobile